sensor_id;sensor_type;location;lat;lon;timestamp;P1;durP1;ratioP1;P2;durP2;ratioP2
68438;SDS011;55421;51.600;5.718;2023-02-26T00:03:51;22.00;;;4.20;;
68438;SDS011;55421;51.600;5.718;2023-02-26T00:06:19;8.40;;;3.90;;
68438;SDS011;55421;51.600;5.718;2023-02-26T00:08:47;12.70;;;4.00;;
68438;SDS011;55421;51.600;5.718;2023-02-26T00:11:14;14.70;;;4.60;;
68438;SDS011;55421;51.600;5.718;2023-02-26T00:13:42;7.90;;;4.10;;
68438;SDS011;55421;51.600;5.718;2023-02-26T00:16:32;12.30;;;4.90;;
68438;SDS011;55421;51.600;5.718;2023-02-26T00:19:03;8.90;;;3.60;;
68438;SDS011;55421;51.600;5.718;2023-02-26T00:21:33;9.30;;;3.80;;
68438;SDS011;55421;51.600;5.718;2023-02-26T00:24:00;9.50;;;3.80;;
68438;SDS011;55421;51.600;5.718;2023-02-26T00:26:29;14.60;;;3.80;;
68438;SDS011;55421;51.600;5.718;2023-02-26T00:28:56;8.00;;;3.30;;
68438;SDS011;55421;51.600;5.718;2023-02-26T00:31:23;11.10;;;4.00;;
68438;SDS011;55421;51.600;5.718;2023-02-26T00:33:54;13.50;;;4.00;;
68438;SDS011;55421;51.600;5.718;2023-02-26T00:39:58;12.80;;;3.70;;
68438;SDS011;55421;51.600;5.718;2023-02-26T00:42:34;7.80;;;3.30;;
68438;SDS011;55421;51.600;5.718;2023-02-26T00:45:02;14.10;;;3.10;;
68438;SDS011;55421;51.600;5.718;2023-02-26T00:47:43;13.70;;;3.50;;
68438;SDS011;55421;51.600;5.718;2023-02-26T00:50:28;9.10;;;3.50;;
68438;SDS011;55421;51.600;5.718;2023-02-26T00:53:15;11.60;;;4.10;;
68438;SDS011;55421;51.600;5.718;2023-02-26T00:55:50;7.80;;;3.60;;
68438;SDS011;55421;51.600;5.718;2023-02-26T00:58:16;11.90;;;3.60;;
68438;SDS011;55421;51.600;5.718;2023-02-26T01:00:42;7.20;;;3.10;;
68438;SDS011;55421;51.600;5.718;2023-02-26T01:03:09;6.70;;;3.30;;
68438;SDS011;55421;51.600;5.718;2023-02-26T01:05:37;10.70;;;3.00;;
68438;SDS011;55421;51.600;5.718;2023-02-26T01:08:08;11.80;;;3.90;;
68438;SDS011;55421;51.600;5.718;2023-02-26T01:10:40;9.80;;;3.30;;
68438;SDS011;55421;51.600;5.718;2023-02-26T01:13:07;11.40;;;3.70;;
68438;SDS011;55421;51.600;5.718;2023-02-26T01:15:34;10.00;;;3.80;;
68438;SDS011;55421;51.600;5.718;2023-02-26T01:18:13;10.40;;;2.90;;
68438;SDS011;55421;51.600;5.718;2023-02-26T01:20:48;10.20;;;3.00;;
68438;SDS011;55421;51.600;5.718;2023-02-26T01:23:26;7.20;;;2.60;;
68438;SDS011;55421;51.600;5.718;2023-02-26T01:26:01;7.10;;;2.90;;
68438;SDS011;55421;51.600;5.718;2023-02-26T01:28:32;8.70;;;3.80;;
68438;SDS011;55421;51.600;5.718;2023-02-26T01:31:01;5.60;;;2.80;;
68438;SDS011;55421;51.600;5.718;2023-02-26T01:33:40;7.30;;;2.60;;
68438;SDS011;55421;51.600;5.718;2023-02-26T01:42:04;10.20;;;2.10;;
68438;SDS011;55421;51.600;5.718;2023-02-26T01:44:49;8.80;;;3.00;;
68438;SDS011;55421;51.600;5.718;2023-02-26T01:47:29;6.30;;;2.70;;
68438;SDS011;55421;51.600;5.718;2023-02-26T01:50:22;6.60;;;2.40;;
68438;SDS011;55421;51.600;5.718;2023-02-26T01:56:25;9.30;;;2.60;;
68438;SDS011;55421;51.600;5.718;2023-02-26T01:58:51;5.00;;;2.40;;
68438;SDS011;55421;51.600;5.718;2023-02-26T02:01:18;4.10;;;2.20;;
68438;SDS011;55421;51.600;5.718;2023-02-26T02:03:45;6.80;;;2.30;;
68438;SDS011;55421;51.600;5.718;2023-02-26T02:06:18;3.70;;;2.10;;
68438;SDS011;55421;51.600;5.718;2023-02-26T02:08:47;9.20;;;2.80;;
68438;SDS011;55421;51.600;5.718;2023-02-26T02:11:14;5.20;;;2.40;;
68438;SDS011;55421;51.600;5.718;2023-02-26T02:16:58;5.40;;;2.10;;
68438;SDS011;55421;51.600;5.718;2023-02-26T02:20:05;7.90;;;2.60;;
68438;SDS011;55421;51.600;5.718;2023-02-26T02:28:36;10.00;;;2.40;;
68438;SDS011;55421;51.600;5.718;2023-02-26T02:31:16;7.30;;;2.70;;
68438;SDS011;55421;51.600;5.718;2023-02-26T02:34:13;10.50;;;2.10;;
68438;SDS011;55421;51.600;5.718;2023-02-26T02:36:55;5.60;;;2.60;;
68438;SDS011;55421;51.600;5.718;2023-02-26T02:39:31;12.60;;;2.50;;
68438;SDS011;55421;51.600;5.718;2023-02-26T02:42:19;6.60;;;1.70;;
68438;SDS011;55421;51.600;5.718;2023-02-26T02:45:02;3.30;;;1.70;;
68438;SDS011;55421;51.600;5.718;2023-02-26T02:47:39;5.20;;;2.00;;
68438;SDS011;55421;51.600;5.718;2023-02-26T02:50:15;6.00;;;1.70;;
68438;SDS011;55421;51.600;5.718;2023-02-26T02:52:54;8.40;;;2.00;;
68438;SDS011;55421;51.600;5.718;2023-02-26T02:55:27;10.90;;;1.80;;
68438;SDS011;55421;51.600;5.718;2023-02-26T02:58:12;4.80;;;1.50;;
68438;SDS011;55421;51.600;5.718;2023-02-26T03:00:49;6.00;;;2.00;;
68438;SDS011;55421;51.600;5.718;2023-02-26T03:03:36;5.60;;;1.90;;
68438;SDS011;55421;51.600;5.718;2023-02-26T03:06:06;9.30;;;1.90;;
68438;SDS011;55421;51.600;5.718;2023-02-26T03:08:39;6.70;;;2.10;;
68438;SDS011;55421;51.600;5.718;2023-02-26T03:11:07;8.70;;;1.70;;
68438;SDS011;55421;51.600;5.718;2023-02-26T03:13:34;10.50;;;1.90;;
68438;SDS011;55421;51.600;5.718;2023-02-26T03:16:15;7.30;;;1.70;;
68438;SDS011;55421;51.600;5.718;2023-02-26T03:19:05;4.70;;;1.70;;
68438;SDS011;55421;51.600;5.718;2023-02-26T03:21:53;3.80;;;1.60;;
68438;SDS011;55421;51.600;5.718;2023-02-26T03:27:40;3.70;;;1.80;;
68438;SDS011;55421;51.600;5.718;2023-02-26T03:30:16;3.90;;;1.60;;
68438;SDS011;55421;51.600;5.718;2023-02-26T03:36:02;7.40;;;2.20;;
68438;SDS011;55421;51.600;5.718;2023-02-26T03:38:53;3.70;;;1.30;;
68438;SDS011;55421;51.600;5.718;2023-02-26T03:41:33;6.20;;;1.40;;
68438;SDS011;55421;51.600;5.718;2023-02-26T03:44:18;3.50;;;1.40;;
68438;SDS011;55421;51.600;5.718;2023-02-26T03:46:53;5.40;;;1.80;;
68438;SDS011;55421;51.600;5.718;2023-02-26T03:49:41;6.80;;;1.80;;
68438;SDS011;55421;51.600;5.718;2023-02-26T03:52:12;3.60;;;1.60;;
68438;SDS011;55421;51.600;5.718;2023-02-26T03:54:50;3.30;;;1.60;;
68438;SDS011;55421;51.600;5.718;2023-02-26T03:57:24;7.90;;;1.50;;
68438;SDS011;55421;51.600;5.718;2023-02-26T03:59:52;7.60;;;1.50;;
68438;SDS011;55421;51.600;5.718;2023-02-26T04:02:26;3.70;;;1.50;;
68438;SDS011;55421;51.600;5.718;2023-02-26T04:05:05;7.70;;;1.90;;
68438;SDS011;55421;51.600;5.718;2023-02-26T04:07:38;4.40;;;1.80;;
68438;SDS011;55421;51.600;5.718;2023-02-26T04:10:05;4.40;;;1.60;;
68438;SDS011;55421;51.600;5.718;2023-02-26T04:12:34;5.30;;;1.50;;
68438;SDS011;55421;51.600;5.718;2023-02-26T04:15:02;6.10;;;1.80;;
68438;SDS011;55421;51.600;5.718;2023-02-26T04:17:30;5.30;;;1.60;;
68438;SDS011;55421;51.600;5.718;2023-02-26T04:19:56;6.60;;;1.80;;
68438;SDS011;55421;51.600;5.718;2023-02-26T04:22:23;6.60;;;1.70;;
68438;SDS011;55421;51.600;5.718;2023-02-26T04:24:49;4.80;;;1.60;;
68438;SDS011;55421;51.600;5.718;2023-02-26T04:27:17;3.90;;;1.80;;
68438;SDS011;55421;51.600;5.718;2023-02-26T04:29:44;4.90;;;1.70;;
68438;SDS011;55421;51.600;5.718;2023-02-26T04:32:10;5.80;;;1.70;;
68438;SDS011;55421;51.600;5.718;2023-02-26T04:34:36;3.30;;;1.70;;
68438;SDS011;55421;51.600;5.718;2023-02-26T04:37:03;5.30;;;1.50;;
68438;SDS011;55421;51.600;5.718;2023-02-26T04:39:29;3.60;;;1.50;;
68438;SDS011;55421;51.600;5.718;2023-02-26T04:41:56;4.20;;;1.40;;
68438;SDS011;55421;51.600;5.718;2023-02-26T04:44:22;5.70;;;1.80;;
68438;SDS011;55421;51.600;5.718;2023-02-26T04:46:49;8.20;;;1.70;;
68438;SDS011;55421;51.600;5.718;2023-02-26T04:49:15;8.20;;;2.30;;
68438;SDS011;55421;51.600;5.718;2023-02-26T04:51:42;6.40;;;1.50;;
68438;SDS011;55421;51.600;5.718;2023-02-26T04:54:09;6.10;;;1.60;;
68438;SDS011;55421;51.600;5.718;2023-02-26T04:56:35;6.50;;;1.80;;
68438;SDS011;55421;51.600;5.718;2023-02-26T04:59:02;3.20;;;1.50;;
68438;SDS011;55421;51.600;5.718;2023-02-26T05:01:28;3.40;;;1.30;;
68438;SDS011;55421;51.600;5.718;2023-02-26T05:03:55;3.80;;;1.30;;
68438;SDS011;55421;51.600;5.718;2023-02-26T05:06:21;3.70;;;1.30;;
68438;SDS011;55421;51.600;5.718;2023-02-26T05:08:48;6.80;;;1.40;;
68438;SDS011;55421;51.600;5.718;2023-02-26T05:11:14;5.90;;;1.80;;
68438;SDS011;55421;51.600;5.718;2023-02-26T05:13:41;5.50;;;1.50;;
68438;SDS011;55421;51.600;5.718;2023-02-26T05:16:08;7.50;;;1.70;;
68438;SDS011;55421;51.600;5.718;2023-02-26T05:18:34;7.00;;;1.70;;
68438;SDS011;55421;51.600;5.718;2023-02-26T05:21:01;3.10;;;1.20;;
68438;SDS011;55421;51.600;5.718;2023-02-26T05:23:28;3.60;;;1.00;;
68438;SDS011;55421;51.600;5.718;2023-02-26T05:25:56;7.20;;;1.60;;
68438;SDS011;55421;51.600;5.718;2023-02-26T05:28:24;2.20;;;1.30;;
68438;SDS011;55421;51.600;5.718;2023-02-26T05:30:52;5.30;;;1.40;;
68438;SDS011;55421;51.600;5.718;2023-02-26T05:33:18;6.40;;;1.40;;
68438;SDS011;55421;51.600;5.718;2023-02-26T05:35:45;7.70;;;1.40;;
68438;SDS011;55421;51.600;5.718;2023-02-26T05:38:11;4.80;;;1.40;;
68438;SDS011;55421;51.600;5.718;2023-02-26T05:40:38;8.20;;;1.50;;
68438;SDS011;55421;51.600;5.718;2023-02-26T05:43:04;16.80;;;1.90;;
68438;SDS011;55421;51.600;5.718;2023-02-26T05:45:31;6.50;;;1.20;;
68438;SDS011;55421;51.600;5.718;2023-02-26T05:47:57;7.10;;;1.10;;
68438;SDS011;55421;51.600;5.718;2023-02-26T05:50:24;7.00;;;1.40;;
68438;SDS011;55421;51.600;5.718;2023-02-26T05:52:50;3.20;;;1.20;;
68438;SDS011;55421;51.600;5.718;2023-02-26T05:55:17;4.10;;;1.10;;
68438;SDS011;55421;51.600;5.718;2023-02-26T05:57:44;3.00;;;1.10;;
68438;SDS011;55421;51.600;5.718;2023-02-26T06:00:11;4.90;;;1.10;;
68438;SDS011;55421;51.600;5.718;2023-02-26T06:02:38;5.90;;;1.40;;
68438;SDS011;55421;51.600;5.718;2023-02-26T06:05:06;3.70;;;1.20;;
68438;SDS011;55421;51.600;5.718;2023-02-26T06:07:34;1.40;;;1.20;;
68438;SDS011;55421;51.600;5.718;2023-02-26T06:10:01;6.10;;;1.10;;
68438;SDS011;55421;51.600;5.718;2023-02-26T06:12:27;8.30;;;1.40;;
68438;SDS011;55421;51.600;5.718;2023-02-26T06:14:55;3.60;;;1.10;;
68438;SDS011;55421;51.600;5.718;2023-02-26T06:17:22;6.90;;;1.00;;
68438;SDS011;55421;51.600;5.718;2023-02-26T06:19:48;4.00;;;1.10;;
68438;SDS011;55421;51.600;5.718;2023-02-26T06:22:15;8.50;;;1.40;;
68438;SDS011;55421;51.600;5.718;2023-02-26T06:24:41;4.10;;;1.10;;
68438;SDS011;55421;51.600;5.718;2023-02-26T06:27:08;5.10;;;1.30;;
68438;SDS011;55421;51.600;5.718;2023-02-26T06:29:34;5.30;;;1.30;;
68438;SDS011;55421;51.600;5.718;2023-02-26T06:32:03;4.70;;;1.50;;
68438;SDS011;55421;51.600;5.718;2023-02-26T06:34:31;2.80;;;1.20;;
68438;SDS011;55421;51.600;5.718;2023-02-26T06:36:58;6.30;;;1.20;;
68438;SDS011;55421;51.600;5.718;2023-02-26T06:39:25;4.90;;;1.30;;
68438;SDS011;55421;51.600;5.718;2023-02-26T06:41:52;2.40;;;1.10;;
68438;SDS011;55421;51.600;5.718;2023-02-26T06:44:18;5.90;;;1.50;;
68438;SDS011;55421;51.600;5.718;2023-02-26T06:46:44;5.00;;;1.40;;
68438;SDS011;55421;51.600;5.718;2023-02-26T06:49:11;5.40;;;1.00;;
68438;SDS011;55421;51.600;5.718;2023-02-26T06:51:37;2.30;;;0.80;;
68438;SDS011;55421;51.600;5.718;2023-02-26T06:54:04;3.50;;;1.00;;
68438;SDS011;55421;51.600;5.718;2023-02-26T06:56:30;6.50;;;1.00;;
68438;SDS011;55421;51.600;5.718;2023-02-26T06:58:59;6.30;;;1.30;;
68438;SDS011;55421;51.600;5.718;2023-02-26T07:01:25;3.30;;;1.30;;
68438;SDS011;55421;51.600;5.718;2023-02-26T07:03:52;2.60;;;1.10;;
68438;SDS011;55421;51.600;5.718;2023-02-26T07:06:18;3.20;;;1.70;;
68438;SDS011;55421;51.600;5.718;2023-02-26T07:08:45;5.60;;;1.30;;
68438;SDS011;55421;51.600;5.718;2023-02-26T07:11:11;2.80;;;1.20;;
68438;SDS011;55421;51.600;5.718;2023-02-26T07:13:39;3.00;;;1.00;;
68438;SDS011;55421;51.600;5.718;2023-02-26T07:16:05;8.20;;;1.60;;
68438;SDS011;55421;51.600;5.718;2023-02-26T07:18:33;6.00;;;1.30;;
68438;SDS011;55421;51.600;5.718;2023-02-26T07:21:01;2.10;;;1.10;;
68438;SDS011;55421;51.600;5.718;2023-02-26T07:23:28;2.00;;;1.00;;
68438;SDS011;55421;51.600;5.718;2023-02-26T07:25:55;2.90;;;0.90;;
68438;SDS011;55421;51.600;5.718;2023-02-26T07:28:22;1.60;;;1.00;;
68438;SDS011;55421;51.600;5.718;2023-02-26T07:30:49;2.80;;;1.10;;
68438;SDS011;55421;51.600;5.718;2023-02-26T07:33:16;1.10;;;1.00;;
68438;SDS011;55421;51.600;5.718;2023-02-26T07:35:42;1.10;;;0.90;;
68438;SDS011;55421;51.600;5.718;2023-02-26T07:38:09;6.20;;;1.10;;
68438;SDS011;55421;51.600;5.718;2023-02-26T07:40:35;2.80;;;1.10;;
68438;SDS011;55421;51.600;5.718;2023-02-26T07:43:02;5.50;;;1.60;;
68438;SDS011;55421;51.600;5.718;2023-02-26T07:45:28;10.60;;;3.90;;
68438;SDS011;55421;51.600;5.718;2023-02-26T07:47:55;5.20;;;2.60;;
68438;SDS011;55421;51.600;5.718;2023-02-26T07:50:21;3.20;;;1.10;;
68438;SDS011;55421;51.600;5.718;2023-02-26T07:52:51;4.50;;;1.40;;
68438;SDS011;55421;51.600;5.718;2023-02-26T07:55:19;3.30;;;1.20;;
68438;SDS011;55421;51.600;5.718;2023-02-26T07:57:45;5.30;;;1.20;;
68438;SDS011;55421;51.600;5.718;2023-02-26T08:00:13;4.40;;;1.10;;
68438;SDS011;55421;51.600;5.718;2023-02-26T08:02:40;5.70;;;1.40;;
68438;SDS011;55421;51.600;5.718;2023-02-26T08:05:07;3.10;;;1.30;;
68438;SDS011;55421;51.600;5.718;2023-02-26T08:07:34;5.40;;;1.50;;
68438;SDS011;55421;51.600;5.718;2023-02-26T08:10:00;1.90;;;1.20;;
68438;SDS011;55421;51.600;5.718;2023-02-26T08:12:27;2.70;;;1.20;;
68438;SDS011;55421;51.600;5.718;2023-02-26T08:14:53;3.40;;;1.00;;
68438;SDS011;55421;51.600;5.718;2023-02-26T08:17:20;3.50;;;1.10;;
68438;SDS011;55421;51.600;5.718;2023-02-26T08:19:46;2.70;;;0.90;;
68438;SDS011;55421;51.600;5.718;2023-02-26T08:22:13;2.40;;;1.20;;
68438;SDS011;55421;51.600;5.718;2023-02-26T08:24:39;2.90;;;0.90;;
68438;SDS011;55421;51.600;5.718;2023-02-26T08:27:06;7.30;;;1.80;;
68438;SDS011;55421;51.600;5.718;2023-02-26T08:29:33;5.10;;;1.40;;
68438;SDS011;55421;51.600;5.718;2023-02-26T08:31:59;6.80;;;1.30;;
68438;SDS011;55421;51.600;5.718;2023-02-26T08:34:25;3.30;;;1.10;;
68438;SDS011;55421;51.600;5.718;2023-02-26T08:36:52;5.30;;;1.20;;
68438;SDS011;55421;51.600;5.718;2023-02-26T08:39:20;5.20;;;1.50;;
68438;SDS011;55421;51.600;5.718;2023-02-26T08:41:47;4.10;;;1.30;;
68438;SDS011;55421;51.600;5.718;2023-02-26T08:44:13;3.20;;;1.00;;
68438;SDS011;55421;51.600;5.718;2023-02-26T08:46:40;3.00;;;1.10;;
68438;SDS011;55421;51.600;5.718;2023-02-26T08:49:06;3.90;;;1.10;;
68438;SDS011;55421;51.600;5.718;2023-02-26T08:51:33;5.20;;;1.20;;
68438;SDS011;55421;51.600;5.718;2023-02-26T08:53:59;3.80;;;1.20;;
68438;SDS011;55421;51.600;5.718;2023-02-26T08:56:26;1.70;;;1.20;;
68438;SDS011;55421;51.600;5.718;2023-02-26T08:58:52;3.40;;;1.20;;
68438;SDS011;55421;51.600;5.718;2023-02-26T09:01:19;2.90;;;1.00;;
68438;SDS011;55421;51.600;5.718;2023-02-26T09:03:45;4.90;;;1.50;;
68438;SDS011;55421;51.600;5.718;2023-02-26T09:06:12;4.80;;;1.50;;
68438;SDS011;55421;51.600;5.718;2023-02-26T09:08:38;1.30;;;1.10;;
68438;SDS011;55421;51.600;5.718;2023-02-26T09:11:05;2.40;;;0.60;;
68438;SDS011;55421;51.600;5.718;2023-02-26T09:13:31;2.80;;;1.00;;
68438;SDS011;55421;51.600;5.718;2023-02-26T09:15:58;7.30;;;1.30;;
68438;SDS011;55421;51.600;5.718;2023-02-26T09:18:24;3.10;;;0.90;;
68438;SDS011;55421;51.600;5.718;2023-02-26T09:20:51;3.50;;;0.80;;
68438;SDS011;55421;51.600;5.718;2023-02-26T09:23:17;5.20;;;1.00;;
68438;SDS011;55421;51.600;5.718;2023-02-26T09:25:44;1.40;;;0.50;;
68438;SDS011;55421;51.600;5.718;2023-02-26T09:28:11;1.70;;;0.80;;
68438;SDS011;55421;51.600;5.718;2023-02-26T09:30:37;3.20;;;1.00;;
68438;SDS011;55421;51.600;5.718;2023-02-26T09:33:04;2.70;;;0.90;;
68438;SDS011;55421;51.600;5.718;2023-02-26T09:35:30;2.30;;;0.80;;
68438;SDS011;55421;51.600;5.718;2023-02-26T09:37:57;1.80;;;0.90;;
68438;SDS011;55421;51.600;5.718;2023-02-26T09:40:46;4.30;;;1.10;;
68438;SDS011;55421;51.600;5.718;2023-02-26T09:47:03;2.30;;;0.90;;
68438;SDS011;55421;51.600;5.718;2023-02-26T09:52:44;2.00;;;1.10;;
68438;SDS011;55421;51.600;5.718;2023-02-26T09:55:25;2.80;;;0.80;;
68438;SDS011;55421;51.600;5.718;2023-02-26T09:57:58;2.60;;;1.30;;
68438;SDS011;55421;51.600;5.718;2023-02-26T10:01:10;7.80;;;1.80;;
68438;SDS011;55421;51.600;5.718;2023-02-26T10:07:07;2.10;;;0.80;;
68438;SDS011;55421;51.600;5.718;2023-02-26T10:12:19;1.30;;;1.00;;
68438;SDS011;55421;51.600;5.718;2023-02-26T10:14:58;3.40;;;0.90;;
68438;SDS011;55421;51.600;5.718;2023-02-26T10:17:54;2.80;;;0.70;;
68438;SDS011;55421;51.600;5.718;2023-02-26T10:23:30;3.60;;;0.70;;
68438;SDS011;55421;51.600;5.718;2023-02-26T10:26:11;5.60;;;0.80;;
68438;SDS011;55421;51.600;5.718;2023-02-26T10:31:32;5.20;;;0.80;;
68438;SDS011;55421;51.600;5.718;2023-02-26T10:34:07;3.30;;;0.80;;
68438;SDS011;55421;51.600;5.718;2023-02-26T10:39:46;5.10;;;0.90;;
68438;SDS011;55421;51.600;5.718;2023-02-26T10:42:19;3.80;;;1.90;;
68438;SDS011;55421;51.600;5.718;2023-02-26T10:44:59;1.90;;;0.90;;
68438;SDS011;55421;51.600;5.718;2023-02-26T10:47:46;2.50;;;0.70;;
68438;SDS011;55421;51.600;5.718;2023-02-26T10:50:38;1.80;;;0.60;;
68438;SDS011;55421;51.600;5.718;2023-02-26T10:53:11;3.30;;;0.90;;
68438;SDS011;55421;51.600;5.718;2023-02-26T10:55:45;5.30;;;0.80;;
68438;SDS011;55421;51.600;5.718;2023-02-26T10:58:15;2.50;;;0.60;;
68438;SDS011;55421;51.600;5.718;2023-02-26T11:00:53;2.10;;;0.60;;
68438;SDS011;55421;51.600;5.718;2023-02-26T11:03:30;1.20;;;0.70;;
68438;SDS011;55421;51.600;5.718;2023-02-26T11:06:00;2.20;;;0.80;;
68438;SDS011;55421;51.600;5.718;2023-02-26T11:08:34;1.50;;;0.60;;
68438;SDS011;55421;51.600;5.718;2023-02-26T11:11:08;2.90;;;0.60;;
68438;SDS011;55421;51.600;5.718;2023-02-26T11:13:36;1.50;;;0.60;;
68438;SDS011;55421;51.600;5.718;2023-02-26T11:16:10;4.40;;;0.90;;
68438;SDS011;55421;51.600;5.718;2023-02-26T11:18:53;1.00;;;0.60;;
68438;SDS011;55421;51.600;5.718;2023-02-26T11:21:24;1.20;;;0.50;;
68438;SDS011;55421;51.600;5.718;2023-02-26T11:24:27;1.10;;;0.50;;
68438;SDS011;55421;51.600;5.718;2023-02-26T11:27:00;4.60;;;0.80;;
68438;SDS011;55421;51.600;5.718;2023-02-26T11:29:41;1.40;;;0.80;;
68438;SDS011;55421;51.600;5.718;2023-02-26T11:32:17;2.40;;;0.90;;
68438;SDS011;55421;51.600;5.718;2023-02-26T11:34:50;1.40;;;0.90;;
68438;SDS011;55421;51.600;5.718;2023-02-26T11:37:22;4.30;;;1.10;;
68438;SDS011;55421;51.600;5.718;2023-02-26T11:39:58;2.10;;;0.60;;
68438;SDS011;55421;51.600;5.718;2023-02-26T11:42:37;2.50;;;0.70;;
68438;SDS011;55421;51.600;5.718;2023-02-26T11:45:13;1.70;;;0.70;;
68438;SDS011;55421;51.600;5.718;2023-02-26T11:47:43;0.70;;;0.70;;
68438;SDS011;55421;51.600;5.718;2023-02-26T11:50:15;2.50;;;0.80;;
68438;SDS011;55421;51.600;5.718;2023-02-26T11:52:53;0.50;;;0.50;;
68438;SDS011;55421;51.600;5.718;2023-02-26T11:55:38;1.60;;;0.90;;
68438;SDS011;55421;51.600;5.718;2023-02-26T11:58:21;3.40;;;1.00;;
68438;SDS011;55421;51.600;5.718;2023-02-26T12:00:53;2.00;;;0.90;;
68438;SDS011;55421;51.600;5.718;2023-02-26T12:03:31;1.10;;;0.40;;
68438;SDS011;55421;51.600;5.718;2023-02-26T12:06:00;2.60;;;0.70;;
68438;SDS011;55421;51.600;5.718;2023-02-26T12:08:38;1.80;;;0.50;;
68438;SDS011;55421;51.600;5.718;2023-02-26T12:14:14;1.10;;;0.50;;
68438;SDS011;55421;51.600;5.718;2023-02-26T12:19:54;2.70;;;0.70;;
68438;SDS011;55421;51.600;5.718;2023-02-26T12:29:06;1.20;;;0.70;;
68438;SDS011;55421;51.600;5.718;2023-02-26T12:31:53;3.00;;;0.80;;
68438;SDS011;55421;51.600;5.718;2023-02-26T12:37:41;0.70;;;0.70;;
68438;SDS011;55421;51.600;5.718;2023-02-26T12:40:33;2.10;;;0.60;;
68438;SDS011;55421;51.600;5.718;2023-02-26T12:43:35;1.30;;;0.70;;
68438;SDS011;55421;51.600;5.718;2023-02-26T12:49:21;2.40;;;0.90;;
68438;SDS011;55421;51.600;5.718;2023-02-26T12:55:24;1.80;;;0.70;;
68438;SDS011;55421;51.600;5.718;2023-02-26T13:04:32;1.30;;;0.60;;
68438;SDS011;55421;51.600;5.718;2023-02-26T13:12:46;3.50;;;0.80;;
68438;SDS011;55421;51.600;5.718;2023-02-26T13:18:19;1.10;;;0.70;;
68438;SDS011;55421;51.600;5.718;2023-02-26T13:21:04;1.00;;;0.50;;
68438;SDS011;55421;51.600;5.718;2023-02-26T13:24:06;1.70;;;0.80;;
68438;SDS011;55421;51.600;5.718;2023-02-26T13:26:37;2.50;;;1.10;;
68438;SDS011;55421;51.600;5.718;2023-02-26T13:29:18;1.70;;;0.80;;
68438;SDS011;55421;51.600;5.718;2023-02-26T13:31:57;3.50;;;0.70;;
68438;SDS011;55421;51.600;5.718;2023-02-26T13:34:49;6.20;;;0.80;;
68438;SDS011;55421;51.600;5.718;2023-02-26T13:37:32;0.70;;;0.70;;
68438;SDS011;55421;51.600;5.718;2023-02-26T13:49:02;2.30;;;0.90;;
68438;SDS011;55421;51.600;5.718;2023-02-26T13:51:38;0.60;;;0.50;;
68438;SDS011;55421;51.600;5.718;2023-02-26T14:04:50;1.30;;;0.50;;
68438;SDS011;55421;51.600;5.718;2023-02-26T14:07:51;3.00;;;0.80;;
68438;SDS011;55421;51.600;5.718;2023-02-26T14:10:28;2.20;;;0.50;;
68438;SDS011;55421;51.600;5.718;2023-02-26T14:13:15;3.70;;;0.80;;
68438;SDS011;55421;51.600;5.718;2023-02-26T14:16:12;1.40;;;0.80;;
68438;SDS011;55421;51.600;5.718;2023-02-26T14:18:48;1.40;;;0.90;;
68438;SDS011;55421;51.600;5.718;2023-02-26T14:21:26;3.40;;;1.00;;
68438;SDS011;55421;51.600;5.718;2023-02-26T14:24:04;1.60;;;0.70;;
68438;SDS011;55421;51.600;5.718;2023-02-26T14:26:44;1.70;;;0.80;;
68438;SDS011;55421;51.600;5.718;2023-02-26T14:29:28;4.40;;;0.90;;
68438;SDS011;55421;51.600;5.718;2023-02-26T14:32:14;1.20;;;0.70;;
68438;SDS011;55421;51.600;5.718;2023-02-26T14:34:54;2.70;;;1.10;;
68438;SDS011;55421;51.600;5.718;2023-02-26T14:37:27;2.80;;;1.30;;
68438;SDS011;55421;51.600;5.718;2023-02-26T14:40:03;2.00;;;1.00;;
68438;SDS011;55421;51.600;5.718;2023-02-26T14:42:38;3.00;;;1.50;;
68438;SDS011;55421;51.600;5.718;2023-02-26T14:45:15;1.40;;;0.90;;
68438;SDS011;55421;51.600;5.718;2023-02-26T14:47:59;2.60;;;0.90;;
68438;SDS011;55421;51.600;5.718;2023-02-26T14:50:38;2.70;;;0.80;;
68438;SDS011;55421;51.600;5.718;2023-02-26T15:02:54;1.40;;;0.70;;
68438;SDS011;55421;51.600;5.718;2023-02-26T15:11:37;2.50;;;1.00;;
68438;SDS011;55421;51.600;5.718;2023-02-26T15:23:41;1.50;;;0.90;;
68438;SDS011;55421;51.600;5.718;2023-02-26T15:26:26;1.20;;;0.80;;
68438;SDS011;55421;51.600;5.718;2023-02-26T15:28:56;1.30;;;1.00;;
68438;SDS011;55421;51.600;5.718;2023-02-26T15:31:34;0.60;;;0.60;;
68438;SDS011;55421;51.600;5.718;2023-02-26T15:34:02;2.30;;;0.90;;
68438;SDS011;55421;51.600;5.718;2023-02-26T15:36:30;1.90;;;1.00;;
68438;SDS011;55421;51.600;5.718;2023-02-26T15:38:59;2.60;;;1.10;;
68438;SDS011;55421;51.600;5.718;2023-02-26T15:41:30;1.50;;;0.70;;
68438;SDS011;55421;51.600;5.718;2023-02-26T15:44:04;3.10;;;0.80;;
68438;SDS011;55421;51.600;5.718;2023-02-26T15:46:36;0.90;;;0.70;;
68438;SDS011;55421;51.600;5.718;2023-02-26T15:49:16;0.70;;;0.70;;
68438;SDS011;55421;51.600;5.718;2023-02-26T15:51:51;2.90;;;0.80;;
68438;SDS011;55421;51.600;5.718;2023-02-26T15:54:21;1.40;;;1.10;;
68438;SDS011;55421;51.600;5.718;2023-02-26T15:56:50;3.30;;;1.00;;
68438;SDS011;55421;51.600;5.718;2023-02-26T15:59:20;3.10;;;0.70;;
68438;SDS011;55421;51.600;5.718;2023-02-26T16:01:53;1.00;;;0.80;;
68438;SDS011;55421;51.600;5.718;2023-02-26T16:04:21;0.80;;;0.70;;
68438;SDS011;55421;51.600;5.718;2023-02-26T16:07:16;1.00;;;0.80;;
68438;SDS011;55421;51.600;5.718;2023-02-26T16:09:48;1.80;;;0.40;;
68438;SDS011;55421;51.600;5.718;2023-02-26T16:12:19;2.20;;;0.90;;
68438;SDS011;55421;51.600;5.718;2023-02-26T16:14:53;2.30;;;0.90;;
68438;SDS011;55421;51.600;5.718;2023-02-26T16:17:33;1.60;;;0.80;;
68438;SDS011;55421;51.600;5.718;2023-02-26T16:20:11;1.70;;;0.60;;
68438;SDS011;55421;51.600;5.718;2023-02-26T16:22:46;0.60;;;0.60;;
68438;SDS011;55421;51.600;5.718;2023-02-26T16:25:30;3.20;;;0.90;;
68438;SDS011;55421;51.600;5.718;2023-02-26T16:28:04;1.70;;;0.80;;
68438;SDS011;55421;51.600;5.718;2023-02-26T16:30:35;1.90;;;0.90;;
68438;SDS011;55421;51.600;5.718;2023-02-26T16:33:08;2.50;;;0.70;;
68438;SDS011;55421;51.600;5.718;2023-02-26T16:35:45;1.40;;;0.80;;
68438;SDS011;55421;51.600;5.718;2023-02-26T16:38:19;1.50;;;0.70;;
68438;SDS011;55421;51.600;5.718;2023-02-26T16:40:57;0.70;;;0.60;;
68438;SDS011;55421;51.600;5.718;2023-02-26T16:46:13;2.00;;;0.70;;
68438;SDS011;55421;51.600;5.718;2023-02-26T16:48:50;1.70;;;0.70;;
68438;SDS011;55421;51.600;5.718;2023-02-26T16:51:24;2.80;;;0.60;;
68438;SDS011;55421;51.600;5.718;2023-02-26T16:54:05;1.70;;;0.90;;
68438;SDS011;55421;51.600;5.718;2023-02-26T16:56:39;0.80;;;0.70;;
68438;SDS011;55421;51.600;5.718;2023-02-26T16:59:22;2.20;;;0.80;;
68438;SDS011;55421;51.600;5.718;2023-02-26T17:01:59;2.60;;;1.10;;
68438;SDS011;55421;51.600;5.718;2023-02-26T17:04:34;3.10;;;0.90;;
68438;SDS011;55421;51.600;5.718;2023-02-26T17:07:13;3.40;;;1.30;;
68438;SDS011;55421;51.600;5.718;2023-02-26T17:09:49;2.30;;;1.10;;
68438;SDS011;55421;51.600;5.718;2023-02-26T17:12:23;0.90;;;0.70;;
68438;SDS011;55421;51.600;5.718;2023-02-26T17:14:56;2.20;;;0.90;;
68438;SDS011;55421;51.600;5.718;2023-02-26T17:17:26;1.10;;;0.80;;
68438;SDS011;55421;51.600;5.718;2023-02-26T17:19:53;1.60;;;0.90;;
68438;SDS011;55421;51.600;5.718;2023-02-26T17:22:25;0.90;;;0.90;;
68438;SDS011;55421;51.600;5.718;2023-02-26T17:24:53;2.60;;;1.00;;
68438;SDS011;55421;51.600;5.718;2023-02-26T17:27:27;1.10;;;0.80;;
68438;SDS011;55421;51.600;5.718;2023-02-26T17:29:58;2.60;;;0.80;;
68438;SDS011;55421;51.600;5.718;2023-02-26T17:32:26;2.40;;;0.90;;
68438;SDS011;55421;51.600;5.718;2023-02-26T17:34:53;2.10;;;1.00;;
68438;SDS011;55421;51.600;5.718;2023-02-26T17:37:21;5.30;;;1.00;;